createdAt,value
2022-12-19T00:00:49.538Z,0.50
2022-12-19T00:03:36.703Z,0.40
2022-12-19T00:06:24.425Z,0.40
2022-12-19T00:09:13.144Z,0.27
2022-12-19T00:12:00.461Z,0.40
2022-12-19T00:14:47.489Z,0.40
2022-12-19T00:17:35.356Z,0.37
2022-12-19T00:20:24.498Z,0.40
2022-12-19T00:23:11.500Z,0.50
2022-12-19T00:25:58.679Z,0.50
2022-12-19T00:28:47.085Z,0.50
2022-12-19T00:31:36.599Z,0.67
2022-12-19T00:34:23.806Z,0.30
2022-12-19T00:37:10.751Z,0.33
2022-12-19T00:39:57.729Z,0.43
2022-12-19T00:42:48.657Z,0.40
2022-12-19T00:45:38.927Z,0.40
2022-12-19T00:48:26.034Z,0.20
2022-12-19T00:51:24.174Z,0.40
2022-12-19T00:54:12.899Z,0.63
2022-12-19T00:56:40.162Z,0.43
2022-12-19T00:59:07.356Z,0.30
2022-12-19T01:01:37.331Z,0.40
2022-12-19T01:06:59.793Z,0.33
2022-12-19T01:09:33.391Z,0.47
2022-12-19T01:12:20.457Z,0.40
2022-12-19T01:15:14.728Z,0.33
2022-12-19T01:18:01.641Z,0.30
2022-12-19T01:20:48.567Z,0.37
2022-12-19T01:23:36.538Z,0.43
2022-12-19T01:26:23.789Z,0.30
2022-12-19T01:29:10.700Z,0.40
2022-12-19T01:31:57.616Z,0.30
2022-12-19T01:34:44.586Z,0.30
2022-12-19T01:37:31.632Z,0.47
2022-12-19T01:40:18.554Z,0.50
2022-12-19T01:43:05.520Z,0.40
2022-12-19T01:45:55.586Z,0.50
2022-12-19T01:48:53.711Z,0.40
2022-12-19T01:51:44.334Z,0.47
2022-12-19T01:54:44.836Z,0.40
2022-12-19T01:57:35.821Z,0.70
2022-12-19T02:00:26.216Z,0.50
2022-12-19T02:03:19.610Z,0.50
2022-12-19T02:06:06.622Z,0.30
2022-12-19T02:08:55.265Z,0.27
2022-12-19T02:11:42.315Z,0.40
2022-12-19T02:14:29.451Z,0.50
2022-12-19T02:17:25.673Z,0.60
2022-12-19T02:20:50.609Z,0.40
2022-12-19T02:23:43.419Z,0.40
2022-12-19T02:27:05.419Z,0.60
2022-12-19T02:30:40.690Z,0.40
2022-12-19T02:33:41.332Z,0.47
2022-12-19T02:36:46.853Z,0.60
2022-12-19T02:39:42.772Z,0.50
2022-12-19T02:42:35.235Z,0.50
2022-12-19T02:45:28.853Z,0.37
2022-12-19T02:48:19.621Z,0.50
2022-12-19T02:51:07.767Z,0.40
2022-12-19T02:53:58.308Z,0.50
2022-12-19T02:56:57.777Z,0.40
2022-12-19T02:59:53.689Z,0.30
2022-12-19T03:02:59.827Z,0.23
2022-12-19T03:06:09.567Z,0.50
2022-12-19T03:09:07.469Z,0.50
2022-12-19T03:11:58.929Z,0.43
2022-12-19T03:14:47.224Z,0.30
2022-12-19T03:17:34.712Z,0.50
2022-12-19T03:20:25.676Z,0.33
2022-12-19T03:23:12.690Z,0.27
2022-12-19T03:26:03.317Z,0.40
2022-12-19T03:29:02.212Z,0.30
2022-12-19T03:31:53.284Z,0.20
2022-12-19T03:34:55.113Z,0.20
2022-12-19T03:37:45.453Z,0.17
2022-12-19T03:40:39.918Z,0.27
2022-12-19T03:43:31.254Z,0.27
2022-12-19T03:46:43.390Z,0.40
2022-12-19T03:49:30.509Z,0.20
2022-12-19T03:52:42.050Z,0.30
2022-12-19T03:55:39.538Z,0.20
2022-12-19T03:58:31.994Z,0.10
2022-12-19T04:01:19.565Z,0.17
2022-12-19T04:04:06.538Z,0.20
2022-12-19T04:06:54.997Z,0.23
2022-12-19T04:09:43.618Z,0.30
2022-12-19T04:12:36.068Z,0.20
2022-12-19T04:15:24.284Z,0.27
2022-12-19T04:18:17.428Z,0.20
2022-12-19T04:21:07.829Z,0.13
2022-12-19T04:24:02.170Z,0.33
2022-12-19T04:26:51.420Z,0.10
2022-12-19T04:29:39.193Z,0.23
2022-12-19T04:32:28.656Z,0.20
2022-12-19T04:35:15.524Z,0.13
2022-12-19T04:38:02.691Z,0.40
2022-12-19T04:40:49.989Z,0.20
2022-12-19T04:43:36.894Z,0.40
2022-12-19T04:46:24.084Z,0.50
2022-12-19T04:49:10.940Z,0.20
2022-12-19T04:51:58.255Z,0.23
2022-12-19T04:54:46.628Z,0.27
2022-12-19T04:57:33.614Z,0.40
2022-12-19T05:00:20.533Z,0.13
2022-12-19T05:03:07.502Z,0.30
2022-12-19T05:05:54.445Z,0.30
2022-12-19T05:08:41.898Z,0.30
2022-12-19T05:11:30.493Z,0.40
2022-12-19T05:14:19.081Z,0.20
2022-12-19T05:17:05.963Z,0.50
2022-12-19T05:19:53.376Z,0.10
2022-12-19T05:22:40.295Z,0.63
2022-12-19T05:25:27.843Z,0.20
2022-12-19T05:28:14.881Z,0.20
2022-12-19T05:31:02.399Z,0.20
2022-12-19T05:33:49.538Z,0.20
2022-12-19T05:36:37.917Z,0.00
2022-12-19T05:39:25.006Z,0.23
2022-12-19T05:42:12.611Z,0.30
2022-12-19T05:44:59.646Z,0.30
2022-12-19T05:47:46.610Z,0.13
2022-12-19T05:50:37.666Z,0.30
2022-12-19T05:53:29.538Z,0.20
2022-12-19T05:56:27.257Z,0.60
2022-12-19T05:59:14.333Z,0.60
2022-12-19T06:02:02.199Z,0.30
2022-12-19T06:04:50.524Z,0.30
2022-12-19T06:07:38.103Z,0.20
2022-12-19T06:10:26.458Z,0.43
2022-12-19T06:13:13.329Z,0.10
2022-12-19T06:16:00.261Z,0.30
2022-12-19T06:18:47.900Z,0.23
2022-12-19T06:21:47.884Z,0.73
2022-12-19T06:24:35.651Z,0.57
2022-12-19T06:27:22.705Z,0.33
2022-12-19T06:30:09.964Z,0.10
2022-12-19T06:32:57.023Z,0.23
2022-12-19T06:35:43.856Z,0.20
2022-12-19T06:38:30.774Z,0.57
2022-12-19T06:41:16.771Z,0.70
2022-12-19T06:43:45.334Z,0.40
2022-12-19T06:46:14.867Z,0.27
2022-12-19T06:48:41.832Z,0.20
2022-12-19T06:51:28.702Z,0.30
2022-12-19T06:54:15.690Z,0.37
2022-12-19T06:57:03.843Z,0.40
2022-12-19T06:59:50.744Z,0.30
2022-12-19T07:02:45.503Z,0.20
2022-12-19T07:05:33.386Z,0.50
2022-12-19T07:08:21.007Z,0.57
2022-12-19T07:11:08.041Z,0.20
2022-12-19T07:13:54.952Z,0.30
2022-12-19T07:16:41.887Z,0.70
2022-12-19T07:19:29.577Z,0.27
2022-12-19T07:22:16.630Z,0.40
2022-12-19T07:25:03.646Z,0.30
2022-12-19T07:27:50.514Z,0.50
2022-12-19T07:30:37.996Z,0.33
2022-12-19T07:33:25.240Z,0.30
2022-12-19T07:35:52.467Z,0.30
2022-12-19T07:38:39.432Z,0.30
2022-12-19T07:41:26.429Z,0.33
2022-12-19T07:44:13.548Z,0.13
2022-12-19T07:47:00.449Z,0.83
2022-12-19T07:49:47.366Z,0.90
2022-12-19T07:52:34.312Z,2.63
2022-12-19T07:55:21.286Z,6.23
2022-12-19T07:58:08.301Z,3.47
2022-12-19T08:00:55.458Z,4.37
2022-12-19T08:03:22.674Z,2.30
2022-12-19T08:05:50.073Z,0.60
2022-12-19T08:08:37.292Z,0.50
2022-12-19T08:11:42.980Z,0.60
2022-12-19T08:14:30.779Z,0.37
2022-12-19T08:17:20.775Z,0.30
2022-12-19T08:20:08.050Z,0.10
2022-12-19T08:22:55.211Z,0.20
2022-12-19T08:25:22.255Z,0.40
2022-12-19T08:27:49.262Z,0.40
2022-12-19T08:30:16.185Z,0.30
2022-12-19T08:32:44.820Z,0.30
2022-12-19T08:35:11.976Z,0.10
2022-12-19T08:37:58.855Z,0.20
2022-12-19T08:40:47.572Z,0.30
2022-12-19T08:43:34.678Z,0.10
2022-12-19T08:46:21.939Z,0.10
2022-12-19T08:49:09.532Z,0.23
2022-12-19T08:51:56.376Z,0.13
2022-12-19T08:54:27.360Z,0.20
2022-12-19T08:56:54.414Z,0.10
2022-12-19T08:59:31.338Z,0.33
2022-12-19T09:02:00.880Z,0.27
2022-12-19T09:05:11.165Z,0.13
2022-12-19T09:07:16.171Z,0.30
2022-12-19T09:10:05.328Z,0.30
2022-12-19T09:12:57.292Z,0.17
2022-12-19T09:15:44.895Z,0.30
2022-12-19T09:18:32.086Z,0.10
2022-12-19T09:21:19.875Z,0.27
2022-12-19T09:24:15.370Z,0.30
2022-12-19T09:27:02.203Z,0.13
2022-12-19T09:29:49.286Z,0.10
2022-12-19T09:32:36.255Z,0.13
2022-12-19T09:35:27.048Z,0.27
2022-12-19T09:38:17.208Z,0.30
2022-12-19T09:41:22.732Z,0.20
2022-12-19T09:44:15.295Z,0.27
2022-12-19T09:47:23.627Z,0.30
2022-12-19T09:50:12.470Z,0.30
2022-12-19T09:53:07.953Z,0.10
2022-12-19T09:55:58.131Z,0.27
2022-12-19T09:58:59.350Z,0.30
2022-12-19T10:01:52.908Z,0.20
2022-12-19T10:04:40.082Z,0.63
2022-12-19T10:08:01.317Z,0.10
2022-12-19T10:12:37.969Z,0.10
2022-12-19T10:13:56.007Z,0.27
2022-12-19T10:17:08.533Z,0.30
2022-12-19T10:20:00.355Z,0.50
2022-12-19T10:23:18.199Z,0.40
2022-12-19T10:26:30.263Z,0.30
2022-12-19T10:29:28.006Z,0.30
2022-12-19T10:32:29.725Z,0.30
2022-12-19T10:35:17.424Z,0.60
2022-12-19T10:38:16.432Z,0.30
2022-12-19T10:41:15.419Z,0.40
2022-12-19T10:44:14.589Z,0.40
2022-12-19T10:47:04.454Z,0.27
2022-12-19T10:49:51.639Z,0.23
2022-12-19T10:53:06.540Z,0.40
2022-12-19T10:56:07.474Z,0.20
2022-12-19T10:58:57.232Z,0.30
2022-12-19T11:01:51.865Z,0.20
2022-12-19T11:04:56.513Z,0.33
2022-12-19T11:07:43.422Z,0.40
2022-12-19T11:13:14.761Z,0.33
2022-12-19T11:17:47.759Z,0.30
2022-12-19T11:26:16.224Z,0.27
2022-12-19T11:29:38.748Z,0.50
2022-12-19T11:29:42.128Z,0.40
2022-12-19T11:30:58.909Z,0.40
2022-12-19T11:33:34.199Z,0.40
2022-12-19T11:36:23.703Z,0.20
2022-12-19T11:39:13.605Z,0.30
2022-12-19T11:42:16.153Z,0.40
2022-12-19T11:45:36.067Z,0.50
2022-12-19T11:48:36.813Z,0.30
2022-12-19T11:51:47.022Z,0.40
2022-12-19T11:54:33.797Z,0.30
2022-12-19T11:57:21.458Z,0.50
2022-12-19T12:00:08.795Z,0.33
2022-12-19T12:04:02.015Z,0.30
2022-12-19T12:06:58.470Z,0.30
2022-12-19T12:14:34.603Z,0.40
2022-12-19T12:21:07.154Z,0.40
2022-12-19T12:30:58.974Z,0.40
2022-12-19T12:31:15.119Z,0.50
2022-12-19T12:31:26.161Z,0.50
2022-12-19T12:31:42.781Z,0.60
2022-12-19T12:31:45.495Z,0.53
2022-12-19T12:35:46.739Z,0.60
2022-12-19T12:40:35.607Z,1.00
2022-12-19T12:43:41.052Z,1.33
2022-12-19T12:46:37.295Z,1.70
2022-12-19T12:49:27.043Z,1.27
2022-12-19T12:52:15.373Z,1.50
2022-12-19T12:55:09.661Z,1.40
2022-12-19T12:57:58.131Z,1.50
2022-12-19T13:00:49.551Z,1.07
2022-12-19T13:03:46.148Z,1.43
2022-12-19T13:07:01.941Z,1.40
2022-12-19T13:09:58.805Z,1.47
2022-12-19T13:12:46.431Z,1.40
2022-12-19T13:16:02.781Z,0.97
2022-12-19T13:18:59.652Z,0.70
2022-12-19T13:21:46.555Z,0.87
2022-12-19T13:24:34.482Z,0.90
2022-12-19T13:27:24.095Z,0.70
2022-12-19T13:30:19.913Z,0.60
2022-12-19T13:33:06.671Z,0.80
2022-12-19T13:39:36.237Z,1.13
2022-12-19T13:40:02.475Z,0.70
2022-12-19T13:42:34.179Z,0.90
2022-12-19T13:45:30.001Z,0.63
2022-12-19T13:48:19.711Z,0.40
2022-12-19T13:51:08.393Z,0.63
2022-12-19T13:53:59.776Z,0.70
2022-12-19T13:56:50.443Z,0.60
2022-12-19T13:59:38.060Z,0.60
2022-12-19T14:02:45.390Z,0.80
2022-12-19T14:05:49.370Z,0.80
2022-12-19T14:09:16.738Z,0.77
2022-12-19T14:12:28.959Z,0.70
2022-12-19T14:15:13.038Z,0.70
2022-12-19T14:17:45.073Z,0.63
2022-12-19T14:22:05.976Z,0.70
2022-12-19T14:23:57.608Z,0.70
2022-12-19T14:28:20.528Z,0.50
2022-12-19T14:30:28.005Z,0.80
2022-12-19T14:33:47.019Z,0.50
2022-12-19T14:36:26.909Z,0.50
2022-12-19T14:39:23.052Z,0.60
2022-12-19T14:42:48.354Z,0.50
2022-12-19T14:54:02.259Z,0.60
2022-12-19T14:54:08.206Z,0.50
2022-12-19T14:54:40.198Z,0.57
2022-12-19T14:56:27.679Z,0.50
2022-12-19T14:59:16.531Z,0.70
2022-12-19T15:02:15.737Z,0.60
2022-12-19T15:05:25.247Z,0.53
2022-12-19T15:08:15.532Z,0.60
2022-12-19T15:11:16.958Z,0.70
2022-12-19T15:14:54.268Z,0.57
2022-12-19T15:17:38.903Z,0.70
2022-12-19T15:20:26.411Z,0.73
2022-12-19T15:23:19.831Z,0.57
2022-12-19T15:26:09.342Z,0.70
2022-12-19T15:28:57.661Z,0.90
2022-12-19T15:31:57.512Z,0.67
2022-12-19T15:34:52.296Z,0.73
2022-12-19T15:37:39.145Z,0.80
2022-12-19T15:40:26.875Z,0.80
2022-12-19T15:43:53.119Z,0.73
2022-12-19T15:46:24.047Z,0.67
2022-12-19T15:49:11.178Z,0.90
2022-12-19T15:51:58.104Z,0.80
2022-12-19T15:54:50.113Z,0.80
2022-12-19T15:58:01.929Z,0.80
2022-12-19T16:00:53.775Z,0.93
2022-12-19T16:03:41.019Z,0.90
2022-12-19T16:06:33.294Z,0.90
2022-12-19T16:09:20.207Z,0.80
2022-12-19T16:12:08.040Z,0.80
2022-12-19T17:17:00.870Z,0.90
2022-12-19T17:19:55.531Z,0.90
2022-12-19T17:22:42.562Z,1.17
2022-12-19T17:25:38.467Z,2.03
2022-12-19T17:28:25.683Z,1.80
2022-12-19T17:31:16.050Z,1.97
2022-12-19T17:34:03.289Z,1.30
2022-12-19T17:36:52.445Z,1.83
2022-12-19T17:39:46.424Z,2.23
2022-12-19T17:42:40.806Z,2.07
2022-12-19T17:45:29.254Z,2.50
2022-12-19T17:48:20.485Z,2.17
2022-12-19T17:51:07.627Z,1.37
2022-12-19T17:53:54.626Z,1.70
2022-12-19T17:56:41.926Z,1.60
2022-12-19T17:59:28.799Z,1.57
2022-12-19T18:02:15.941Z,1.13
2022-12-19T18:05:02.932Z,1.33
2022-12-19T18:07:49.966Z,1.70
2022-12-19T18:10:39.597Z,1.20
2022-12-19T18:13:26.748Z,1.33
2022-12-19T18:16:18.430Z,1.30
2022-12-19T18:19:05.985Z,1.40
2022-12-19T18:21:53.126Z,1.20
2022-12-19T18:24:40.169Z,1.23
2022-12-19T18:27:27.129Z,1.27
2022-12-19T18:30:14.016Z,1.23
2022-12-19T18:33:06.256Z,1.10
2022-12-19T18:36:00.399Z,1.40
2022-12-19T18:38:47.344Z,1.30
2022-12-19T18:41:35.575Z,1.37
2022-12-19T18:44:22.487Z,1.27
2022-12-19T18:47:10.914Z,1.23
2022-12-19T18:49:57.811Z,1.50
2022-12-19T18:52:44.754Z,1.37
2022-12-19T18:55:36.919Z,1.80
2022-12-19T18:58:23.790Z,1.80
2022-12-19T19:01:11.342Z,1.87
2022-12-19T19:04:00.329Z,1.90
2022-12-19T19:06:52.508Z,2.30
2022-12-19T19:09:40.802Z,2.33
2022-12-19T19:12:46.454Z,2.27
2022-12-19T19:15:33.323Z,2.50
2022-12-19T19:18:22.981Z,2.30
2022-12-19T19:21:11.787Z,2.03
2022-12-19T19:24:08.629Z,2.10
2022-12-19T19:26:55.690Z,1.90
2022-12-19T19:29:42.630Z,1.70
2022-12-19T19:32:30.094Z,1.60
2022-12-19T19:35:17.149Z,1.67
2022-12-19T19:38:05.042Z,1.93
2022-12-19T19:40:52.665Z,1.87
2022-12-19T19:43:39.573Z,2.00
2022-12-19T19:46:26.633Z,1.97
2022-12-19T19:49:14.265Z,1.80
2022-12-19T19:52:03.118Z,1.83
2022-12-19T19:54:52.316Z,1.67
2022-12-19T19:57:39.199Z,1.67
2022-12-19T20:00:28.716Z,1.90
2022-12-19T20:03:20.736Z,1.60
2022-12-19T20:06:10.408Z,1.90
2022-12-19T20:08:57.412Z,1.80
2022-12-19T20:11:44.380Z,2.43
2022-12-19T20:14:31.285Z,3.13
2022-12-19T20:17:18.188Z,2.50
2022-12-19T20:20:05.106Z,2.33
2022-12-19T20:22:52.136Z,1.93
2022-12-19T20:25:39.132Z,2.17
2022-12-19T20:28:26.793Z,2.67
2022-12-19T20:31:13.876Z,2.30
2022-12-19T20:34:01.108Z,2.53
2022-12-19T20:36:48.020Z,2.67
2022-12-19T20:39:35.299Z,2.60
2022-12-19T20:42:22.262Z,2.37
2022-12-19T20:45:09.304Z,2.10
2022-12-19T20:47:56.277Z,2.23
2022-12-19T20:50:43.546Z,2.27
2022-12-19T20:53:30.479Z,2.10
2022-12-19T20:56:20.096Z,1.40
2022-12-19T20:59:07.021Z,1.60
2022-12-19T21:01:54.000Z,1.30
2022-12-19T21:04:40.964Z,1.40
2022-12-19T21:07:27.922Z,1.80
2022-12-19T21:10:14.825Z,1.27
2022-12-19T21:13:01.749Z,1.10
2022-12-19T21:15:48.598Z,0.60
2022-12-19T21:18:35.692Z,0.90
2022-12-19T21:21:23.570Z,0.73
2022-12-19T21:24:11.048Z,1.20
2022-12-19T21:26:58.507Z,0.90
2022-12-19T21:29:45.514Z,1.33
2022-12-19T21:32:52.278Z,0.73
2022-12-19T21:35:39.195Z,0.73
2022-12-19T21:38:26.151Z,0.40
2022-12-19T21:41:13.063Z,0.37
2022-12-19T21:43:59.852Z,0.53
2022-12-19T21:46:49.748Z,0.80
2022-12-19T21:49:36.777Z,0.57
2022-12-19T21:52:23.754Z,0.63
2022-12-19T21:55:10.659Z,0.63
2022-12-19T21:57:59.619Z,0.40
2022-12-19T22:00:46.703Z,0.53
2022-12-19T22:03:33.731Z,0.57
2022-12-19T22:06:27.377Z,0.57
2022-12-19T22:09:15.596Z,0.43
2022-12-19T22:12:03.218Z,0.47
2022-12-19T22:14:50.238Z,0.60
2022-12-19T22:17:37.153Z,0.80
2022-12-19T22:20:24.452Z,0.80
2022-12-19T22:23:13.419Z,0.33
2022-12-19T22:26:00.876Z,0.60
2022-12-19T22:28:50.033Z,0.60
2022-12-19T22:31:42.603Z,0.60
2022-12-19T22:34:35.781Z,0.80
2022-12-19T22:37:22.845Z,0.50
2022-12-19T22:40:09.725Z,0.50
2022-12-19T22:42:56.708Z,0.60
2022-12-19T22:45:43.652Z,0.80
2022-12-19T22:48:30.614Z,0.83
2022-12-19T22:51:17.458Z,0.60
2022-12-19T22:54:05.475Z,0.80
2022-12-19T22:56:53.995Z,0.70
2022-12-19T22:59:40.865Z,0.50
2022-12-19T23:02:28.104Z,0.40
2022-12-19T23:05:15.086Z,0.67
2022-12-19T23:08:01.987Z,0.30
2022-12-19T23:10:48.941Z,0.50
2022-12-19T23:13:35.768Z,0.30
2022-12-19T23:16:22.849Z,0.27
2022-12-19T23:19:09.756Z,0.40
2022-12-19T23:21:57.438Z,0.13
2022-12-19T23:24:44.367Z,0.40
2022-12-19T23:27:31.323Z,0.20
2022-12-19T23:30:18.319Z,0.20
2022-12-19T23:33:05.314Z,0.27
2022-12-19T23:35:52.826Z,0.30
2022-12-19T23:38:40.114Z,0.23
2022-12-19T23:41:35.010Z,0.30
2022-12-19T23:44:22.077Z,0.20
2022-12-19T23:47:09.202Z,0.30
2022-12-19T23:49:56.178Z,0.20
2022-12-19T23:52:43.125Z,0.20
2022-12-19T23:55:11.099Z,0.30
2022-12-19T23:57:38.126Z,0.20
